South Mason Valley, Nevada Weather observations

Data are for 10 minute period ending at time listed.
 Day   Time   Solar   Ave.   Ave.  Ave.  Vector  Max.   Baro.   Total    
  of    of     Rad.   Air    Rel.  Wind   Wind   Wind  Press.  Precip.   
Year   Day            Temp.  Hum.  Speed  Dir.   Gust                    
2015   (PST)  Kw/m2    F      %     mph   deg.    mph    mb.     in.     
-------------------------------------------------------------------------
 143    7:50   0.43   57.5    71    8.1   300    12.1   878.4    0.00 
 143    8:00   0.29   57.7    69    8.2   289    11.4   878.4    0.00 
 143    8:10   0.32   57.6    69    7.7   290    11.6   878.4    0.00 
 143    8:20   0.42   58.7    69    9.2   298    14.0   878.3    0.00 
 143    8:30   0.47   59.4    67    8.1   314    12.8   878.3    0.00 
 143    8:40   0.38   59.1    66    8.4   306    12.6   878.3    0.00 
 143    8:50   0.26   58.5    66    8.3   297    12.9   878.3    0.00 
 143    9:00   0.37   58.9    65    7.3   288    12.1   878.3    0.00 
 143    9:10   0.41   59.6    62    6.7   320    10.0   878.3    0.00 
 143    9:20   0.39   60.0    60    4.5   300     8.5   878.3    0.00 
 143    9:30   0.39   60.5    60    6.0   289    10.2   878.2    0.00 
 143    9:40   0.30   60.5    60    5.1   323    10.1   878.2    0.00 
 143    9:50   0.21   60.0    62    6.4   301     9.9   878.2    0.00 
 143   10:00   0.20   59.4    63    8.0   313    12.0   878.3    0.00 
 143   10:10   0.28   59.3    66    6.9   304    10.7   878.3    0.00 
 143   10:20   0.40   59.8    65    6.1   324     9.1   878.3    0.00 
 143   10:30   0.45   61.0    62    4.8   309     8.3   878.3    0.00 
 143   10:40   0.46   61.5    58    6.5   323     9.7   878.2    0.00 
 143   10:50   0.62   62.2    56    4.8   310     9.9   878.3    0.00 
 143   11:00   0.40   62.1    56    8.0   310    14.5   878.2    0.00 
 143   11:10   0.36   61.1    59    8.8   329    13.7   878.2    0.00 
 143   11:20   0.41   60.7    60    9.7   342    15.9   878.3    0.00 
 143   11:30   0.39   60.3    60   10.3   339    14.8   878.2    0.00 
 143   11:40   0.48   60.4    60   10.0   344    14.2   878.2    0.00 
 143   11:50   0.56   61.0    57    8.2   341    12.1   878.2    0.00 
 143   12:00   0.48   61.6    54    7.6   357    11.0   878.2    0.00 
 143   12:10   0.32   61.3    54    6.5    17    12.1   878.2    0.00 
 143   12:20   0.23   61.1    55    7.2     0    12.2   878.3    0.00 
 143   12:30   0.19   60.9    54    7.6   336    11.3   878.3    0.00 
 143   12:40   0.19   60.9    54    7.3   324    13.1   878.2    0.00 
 143   12:50   0.20   61.0    54    7.0   325    10.3   878.2    0.00 
 143   13:00   0.19   61.2    54    5.9   324     9.2   878.2    0.00 
 143   13:10   0.15   61.0    54    5.6   338     9.7   878.3    0.00 
 143   13:20   0.13   60.8    55    4.7   332     7.2   878.3    0.00 
 143   13:30   0.11   60.8    55    5.9    14    11.2   878.3    0.00 
 143   13:40   0.11   59.7    62    5.8    56    10.7   878.3    0.00 
 143   13:50   0.17   58.4    66    6.2    72    10.4   878.2    0.00 
 143   14:00   0.16   58.2    63    6.1    70    10.1   878.1    0.00 
 143   14:10   0.10   58.1    65    4.2    69    10.4   878.2    0.00 
 143   14:20   0.12   58.2    66    2.2   115     4.5   878.3    0.00 
 143   14:30   0.11   58.2    69    3.7   105     7.3   878.3    0.00 
 143   14:40   0.13   57.8    70    3.1    62     7.2   878.2    0.00 
 143   14:50   0.19   57.8    71    3.0    42     5.6   878.2    0.00 
 143   15:00   0.21   58.5    70    1.5   110     4.2   878.2    0.00 
 143   15:10   0.19   58.5    70    2.4   107     4.7   878.2    0.00 
 143   15:20   0.21   58.6    70    3.2   103     6.4   878.2    0.00 
 143   15:30   0.19   58.7    72    3.1    77     6.1   878.2    0.00 
 143   15:40   0.10   58.6    72    2.2    54     4.3   878.4    0.00 
 143   15:50   0.14   58.3    72    4.5    47     7.3   878.4    0.00 
 143   16:00   0.12   58.5    71    3.0    22     6.8   878.3    0.00 
 143   16:10   0.14   58.6    71    3.8    26     6.2   878.3    0.00 
 143   16:20   0.15   59.4    72    1.8   304     6.2   878.3    0.00 
 143   16:30   0.13   57.0    76    7.7   238    13.1   878.4    0.00 
 143   16:40   0.12   55.3    79    8.3   222    14.1   878.4    0.00 
 143   16:50   0.10   55.0    79    6.8   226    10.2   878.4    0.00 
 143   17:00   0.10   55.2    79    6.3   226    10.2   878.3    0.00 
 143   17:10   0.13   55.1    79    7.8   230    11.9   878.3    0.00 
 143   17:20   0.11   55.1    80    6.4   225     9.7   878.3    0.00 
 143   17:30   0.08   54.9    81    6.6   227    10.3   878.4    0.00 
 143   17:40   0.09   54.7    82    6.4   230     9.6   878.4    0.00 
 143   17:50   0.12   55.1    81    5.1   226     9.1   878.4    0.00 
 143   18:00   0.16   56.1    80    5.5   232     8.0   878.3    0.00 
 143   18:10   0.09   55.8    80    5.8   223     8.6   878.3    0.00 
 143   18:20   0.06   55.6    81    5.2   226     7.5   878.3    0.00 
 143   18:30   0.03   54.9    82    5.9   226     8.1   878.3    0.00 
 143   18:40   0.01   54.4    82    5.5   231     9.1   878.3    0.00 
 143   18:50   0.01   54.1    81    5.6   244     8.5   878.2    0.00 
 143   19:00   0.01   53.9    80    6.3   252     9.9   878.3    0.00 
 143   19:10   0.01   53.8    80    6.4   247     9.6   878.4    0.00 
 143   19:20   0.00   53.6    80    5.6   245     8.3   878.4    0.00 
 143   19:30   0.00   53.4    81    5.7   243     8.5   878.5    0.00 
 143   19:40   0.00   53.5    82    5.4   246     8.0   878.6    0.00 
 143   19:50   0.00   53.5    83    5.1   248     8.6   878.7    0.00 
 143   20:00   0.00   53.5    83    3.5   254     5.7   878.8    0.00 
 143   20:10   0.00   53.2    84    1.9   267     2.8   878.8    0.00 
 143   20:20   0.00   52.9    84    0.8   210     2.3   878.8    0.00 
 143   20:30   0.00   52.3    84    2.4   175     3.1   878.8    0.00 
 143   20:40   0.00   51.6    84    3.3   204     4.4   878.8    0.00 
 143   20:50   0.00   50.9    85    2.4   210     4.0   878.9    0.00 
 143   21:00   0.00   50.5    85    1.3   180     2.5   879.0    0.00 
 143   21:10   0.00   50.7    86    2.4   218     3.9   879.1    0.00 
 143   21:20   0.00   49.9    86    2.8   225     3.7   879.2    0.00 
 143   21:30   0.00   50.6    87    3.1   227     4.7   879.4    0.00 
 143   21:40   0.00   51.4    86    3.8   233     5.5   879.3    0.00 
 143   21:50   0.00   51.6    85    4.0   229     6.2   879.2    0.00 
 143   22:00   0.00   51.9    85    3.8   230     5.6   879.2    0.00 
 143   22:10   0.00   52.1    84    4.0   225     5.6   879.2    0.00 
 143   22:20   0.00   52.3    84    4.3   218     6.0   879.2    0.00 
 143   22:30   0.00   52.3    85    4.0   210     5.8   879.3    0.00 
 143   22:40   0.00   52.2    85    4.0   214     5.7   879.3    0.00 
 143   22:50   0.00   52.4    84    4.2   216     6.1   879.3    0.00 
 143   23:00   0.00   52.4    84    3.1   208     5.2   879.3    0.00 
 143   23:10   0.00   52.3    84    2.9   209     4.1   879.3    0.00 
 143   23:20   0.00   52.1    84    3.0   181     4.0   879.3    0.00 
 143   23:30   0.00   51.7    85    3.4   160     5.0   879.3    0.00 
 143   23:40   0.00   51.5    86    3.5   191     4.6   879.2    0.00 
 143   23:50   0.00   51.5    86    3.2   207     4.3   879.1    0.00 
 144    0:00   0.00   51.1    86    3.1   197     4.1   879.1    0.00 
 144    0:10   0.00   50.5    86    2.4   181     3.2   879.1    0.00 
 144    0:20   0.00   49.9    86    2.3   170     3.1   879.1    0.00 
 144    0:30   0.00   49.0    87    3.1   156     3.7   879.1    0.00 
 144    0:40   0.00   48.8    88    2.2   131     2.9   879.2    0.00 
 144    0:50   0.00   48.9    88    2.4   118     2.9   879.2    0.00 
 144    1:00   0.00   48.8    88    2.1   142     3.0   879.1    0.00 
 144    1:10   0.00   49.0    88    1.4   184     2.4   879.1    0.00 
 144    1:20   0.00   49.2    89    2.8   200     3.7   879.1    0.00 
 144    1:30   0.00   49.4    89    1.9   195     2.5   879.1    0.00 
 144    1:40   0.00   50.0    89    2.2   214     2.8   879.1    0.00 
 144    1:50   0.00   50.4    89    1.0   226     2.4   879.1    0.00 
 144    2:00   0.00   50.6    89    1.2   174     2.5   879.0    0.00 
 144    2:10   0.00   50.4    89    1.6   178     2.6   879.0    0.00 
 144    2:20   0.00   50.6    89    1.5   203     2.0   879.1    0.00 
 144    2:30   0.00   50.9    89    0.2   208     1.2   879.1    0.00 
 144    2:40   0.00   51.3    89    0.8   292     2.2   879.0    0.00 
 144    2:50   0.00   51.7    89    2.0   261     2.8   879.0    0.00 
 144    3:00   0.00   52.1    88    2.3   240     3.6   878.8    0.00 
 144    3:10   0.00   52.2    88    0.7   266     1.5   878.8    0.00 
 144    3:20   0.00   52.4    87    1.4   302     2.6   878.8    0.00 
 144    3:30   0.00   52.4    86    1.5   256     2.0   878.8    0.00 
 144    3:40   0.00   52.3    86    1.0   243     2.0   878.9    0.00 
 144    3:50   0.00   52.3    86    1.3   289     2.2   878.9    0.00 
 144    4:00   0.00   52.3    86    2.2   282     3.3   878.9    0.00 
 144    4:10   0.00   52.2    86    2.7   270     3.4   878.8    0.00 
 144    4:20   0.00   51.9    86    2.0   270     3.0   878.8    0.00 
 144    4:30   0.00   51.9    85    2.4   268     3.0   878.8    0.00 
 144    4:40   0.00   51.8    84    2.4   271     2.8   878.8    0.00 
 144    4:50   0.01   51.2    84    1.2   252     2.6   878.9    0.00 
 144    5:00   0.01   51.0    85    0.7   248     1.7   878.9    0.00 
 144    5:10   0.03   50.5    85    2.8   268     3.7   879.0    0.00 
 144    5:20   0.08   51.3    85    1.5   265     2.9   879.0    0.00 
 144    5:30   0.10   52.8    84    0.8   306     2.6   879.1    0.00 
 144    5:40   0.14   53.8    83    1.4   295     2.4   879.2    0.00 
 144    5:50   0.21   55.1    81    2.2   290     5.1   879.3    0.00 
 144    6:00   0.12   55.1    79    3.5   293     5.1   879.3    0.00 
 144    6:10   0.11   54.8    79    3.7   298     5.9   879.2    0.00 
 144    6:20   0.11   55.0    79    2.4   295     4.1   879.3    0.00 
 144    6:30   0.14   55.4    78    3.2   285     5.5   879.2    0.00 
 144    6:40   0.13   55.7    76    4.0   290     5.8   879.2    0.00 
 144    6:50   0.12   55.9    76    4.1   288     6.9   879.1    0.00 
 144    7:00   0.16   56.6    76    3.5   295     6.1   879.2    0.00 
 144    7:10   0.22   57.1    74    4.1   282     6.1   879.1    0.00 
 144    7:20   0.23   58.1    73    4.0   289     7.4   879.1    0.00 
 144    7:30   0.24   58.2    71    5.8   289     7.9   879.1    0.00 
 144    7:40   0.24   58.3    72    5.1   303     8.9   879.1    0.00 

Return to south Mason Valley graphs page.


Western Regional Climate Center,wrcc@dri.edu